M I D A S
Marine Information and Data Acquisition System
Tripno 1713 of the Zeeleeuw from 2009-06-22 07:20:52 to 2009-06-22 15:14:20
Back to CruiseResearch ActivitiesStationsMapUnderway DataData graphs

EquipmentUnitsComment
TimeDGPSUTC
LatitudeDGPSDM.mWGS84
LongitudeDGPSDM.mWGS84
HeadingGyrodeg 
SOGDGPSknotsSpeed over ground
COGDGPSdegCourse over ground
DepthEcho soundermeters200 kHz
Missing or incorrect values are displayed as -999
Navigation data collected by the RV Zeeleeuw from 2009-06-22 06:43:57 to 2009-06-22 15:30:18
                                                                                    Next 1000 lines
Time Latitude Longitude Heading SOG COG Depth
2009-06-22 06:44:07 51°13.663 2°55.96 124.7 -999 40 -999
2009-06-22 06:44:12 51°13.663 2°55.96 124.6 -999 184 -999
2009-06-22 06:44:17 51°13.663 2°55.96 124.9 -999 122 -999
2009-06-22 06:44:22 51°13.663 2°55.96 125.3 0.1 146 -999
2009-06-22 06:44:27 51°13.663 2°55.96 125.8 0.1 133 -999
2009-06-22 06:44:32 51°13.663 2°55.96 126.4 0.1 134 -999
2009-06-22 06:44:37 51°13.663 2°55.96 126.9 0.1 147 -999
2009-06-22 06:44:42 51°13.663 2°55.96 127.2 -999 164 -999
2009-06-22 06:44:47 51°13.663 2°55.96 127.5 0.1 228 -999
2009-06-22 06:44:52 51°13.663 2°55.96 127.5 -999 26 -999
2009-06-22 06:44:57 51°13.663 2°55.96 127.4 -999 228 -999
2009-06-22 06:45:02 51°13.663 2°55.96 127.3 -999 334 -999
2009-06-22 06:45:07 51°13.663 2°55.96 127.3 -999 238 -999
2009-06-22 06:45:12 51°13.663 2°55.96 127.2 -999 50 -999
2009-06-22 06:45:17 51°13.663 2°55.96 127.1 -999 297 -999
2009-06-22 06:45:22 51°13.663 2°55.96 127.1 -999 258 -999
2009-06-22 06:45:27 51°13.663 2°55.96 127.1 -999 306 -999
2009-06-22 06:45:32 51°13.663 2°55.96 127.1 -999 319 -999
2009-06-22 06:45:37 51°13.663 2°55.96 127.1 -999 200 -999
2009-06-22 06:45:42 51°13.663 2°55.96 127.1 -999 181 -999
2009-06-22 06:45:47 51°13.662 2°55.96 127.1 -999 254 -999
2009-06-22 06:45:52 51°13.662 2°55.96 127.1 -999 77 -999
2009-06-22 06:45:57 51°13.662 2°55.96 127.1 -999 167 -999
2009-06-22 06:46:02 51°13.662 2°55.96 127.3 -999 207 -999
2009-06-22 06:46:07 51°13.662 2°55.96 127.5 -999 236 -999
2009-06-22 06:46:12 51°13.662 2°55.96 127.5 -999 314 -999
2009-06-22 06:46:17 51°13.662 2°55.96 127.5 -999 216 -999
2009-06-22 06:46:22 51°13.662 2°55.96 127.4 -999 349 -999
2009-06-22 06:46:27 51°13.662 2°55.96 127.3 -999 217 -999
2009-06-22 06:46:32 51°13.662 2°55.96 127.3 -999 22 -999
2009-06-22 06:46:37 51°13.662 2°55.96 127.3 -999 170 -999
2009-06-22 06:46:42 51°13.662 2°55.96 127.3 -999 98 -999
2009-06-22 06:46:47 51°13.662 2°55.96 127.3 -999 204 -999
2009-06-22 06:46:52 51°13.662 2°55.96 127.3 -999 64 -999
2009-06-22 06:46:57 51°13.662 2°55.96 127.1 -999 237 -999
2009-06-22 06:47:02 51°13.662 2°55.96 127 -999 95 -999
2009-06-22 06:47:07 51°13.662 2°55.96 126.8 -999 320 -999
2009-06-22 06:47:12 51°13.662 2°55.96 126.5 -999 309 -999
2009-06-22 06:47:17 51°13.663 2°55.96 126.4 -999 1 -999
2009-06-22 06:47:22 51°13.663 2°55.96 126.2 -999 337 -999
2009-06-22 06:47:27 51°13.663 2°55.96 126.2 -999 291 -999
2009-06-22 06:47:32 51°13.663 2°55.96 126.3 -999 131 -999
2009-06-22 06:47:37 51°13.663 2°55.959 126.4 -999 152 -999
2009-06-22 06:47:42 51°13.662 2°55.959 126.4 -999 155 -999
2009-06-22 06:47:47 51°13.662 2°55.959 126.6 -999 166 -999
2009-06-22 06:47:52 51°13.662 2°55.959 126.8 -999 174 -999
2009-06-22 06:47:57 51°13.662 2°55.96 126.9 -999 128 -999
2009-06-22 06:48:02 51°13.662 2°55.96 127.1 -999 214 -999
2009-06-22 06:48:07 51°13.662 2°55.959 127.1 -999 16 -999
2009-06-22 06:48:12 51°13.662 2°55.96 127.1 -999 265 -999
2009-06-22 06:48:17 51°13.662 2°55.96 127.1 -999 96 -999
2009-06-22 06:48:22 51°13.662 2°55.959 127.1 -999 313 -999
2009-06-22 06:48:27 51°13.662 2°55.959 127.1 -999 217 -999
2009-06-22 06:48:32 51°13.662 2°55.959 127 -999 333 -999
2009-06-22 06:48:37 51°13.662 2°55.959 126.8 -999 233 -999
2009-06-22 06:48:42 51°13.662 2°55.959 126.5 -999 211 -999
2009-06-22 06:48:47 51°13.662 2°55.959 126.4 -999 4 -999
2009-06-22 06:48:52 51°13.662 2°55.959 126.4 -999 281 -999
2009-06-22 06:48:57 51°13.662 2°55.959 126.4 -999 325 -999
2009-06-22 06:49:02 51°13.662 2°55.959 126.4 -999 200 -999
2009-06-22 06:49:07 51°13.662 2°55.959 126.4 -999 104 -999
2009-06-22 06:49:12 51°13.662 2°55.959 126.3 -999 160 -999
2009-06-22 06:49:17 51°13.662 2°55.959 126.3 -999 217 -999
2009-06-22 06:49:22 51°13.663 2°55.959 126.3 -999 191 -999
2009-06-22 06:49:27 51°13.663 2°55.96 126.3 -999 164 -999
2009-06-22 06:49:32 51°13.663 2°55.96 126.3 -999 247 -999
2009-06-22 06:49:37 51°13.663 2°55.96 126.3 -999 136 -999
2009-06-22 06:49:42 51°13.663 2°55.959 126.3 -999 128 -999
2009-06-22 06:49:47 51°13.663 2°55.959 126.4 -999 77 -999
2009-06-22 06:49:52 51°13.663 2°55.959 126.4 -999 301 -999
2009-06-22 06:49:57 51°13.663 2°55.96 126.4 -999 131 -999
2009-06-22 06:50:02 51°13.663 2°55.96 126.4 -999 138 -999
2009-06-22 06:50:07 51°13.663 2°55.96 126.4 -999 181 -999
2009-06-22 06:50:12 51°13.663 2°55.96 126.4 -999 8 -999
2009-06-22 06:50:17 51°13.663 2°55.96 126.4 -999 180 -999
2009-06-22 06:50:22 51°13.663 2°55.96 126.4 -999 241 -999
2009-06-22 06:50:27 51°13.663 2°55.96 126.3 -999 201 -999
2009-06-22 06:50:32 51°13.663 2°55.96 126.3 -999 254 -999
2009-06-22 06:50:37 51°13.663 2°55.96 126.3 -999 297 -999
2009-06-22 06:50:42 51°13.663 2°55.96 126.3 -999 142 -999
2009-06-22 06:50:47 51°13.663 2°55.96 126.3 -999 113 -999
2009-06-22 06:50:52 51°13.663 2°55.96 126.3 -999 124 -999
2009-06-22 06:50:57 51°13.663 2°55.96 126.3 -999 179 -999
2009-06-22 06:51:02 51°13.663 2°55.96 126.3 -999 231 -999
2009-06-22 06:51:07 51°13.664 2°55.961 126.3 -999 266 -999
2009-06-22 06:51:12 51°13.664 2°55.961 126.3 -999 231 -999
2009-06-22 06:51:17 51°13.664 2°55.961 126.3 -999 66 -999
2009-06-22 06:51:22 51°13.664 2°55.961 126.3 -999 297 -999
2009-06-22 06:51:27 51°13.664 2°55.961 126.3 -999 116 -999
2009-06-22 06:51:30 51°13.664 2°55.961 -999 -999 175 -999
2009-06-22 06:51:37 51°13.664 2°55.961 126.4 -999 351 -999
2009-06-22 06:51:42 51°13.664 2°55.961 126.4 -999 161 -999
2009-06-22 06:51:47 51°13.664 2°55.961 126.4 -999 201 -999
2009-06-22 06:51:52 51°13.664 2°55.961 126.4 -999 281 -999
2009-06-22 06:51:57 51°13.663 2°55.96 126.4 -999 14 -999
2009-06-22 06:52:02 51°13.663 2°55.96 126.4 -999 309 -999
2009-06-22 06:52:07 51°13.663 2°55.96 126.4 -999 163 -999
2009-06-22 06:52:12 51°13.663 2°55.96 126.4 -999 64 -999
2009-06-22 06:52:17 51°13.663 2°55.96 126.4 -999 218 -999
2009-06-22 06:52:22 51°13.663 2°55.96 126.4 -999 174 -999
2009-06-22 06:52:27 51°13.663 2°55.96 126.5 0.1 175 -999
2009-06-22 06:52:32 51°13.663 2°55.96 126.6 -999 106 -999
2009-06-22 06:52:37 51°13.663 2°55.96 126.7 -999 164 -999
2009-06-22 06:52:42 51°13.663 2°55.96 126.9 0.1 220 -999
2009-06-22 06:52:47 51°13.663 2°55.96 127.1 -999 188 -999
2009-06-22 06:52:52 51°13.663 2°55.96 127.1 -999 142 -999
2009-06-22 06:52:57 51°13.663 2°55.96 127.1 -999 158 -999
2009-06-22 06:53:02 51°13.663 2°55.96 127.1 -999 38 -999
2009-06-22 06:53:07 51°13.663 2°55.96 127.1 -999 182 -999
2009-06-22 06:53:12 51°13.663 2°55.961 127 0.1 63 -999
2009-06-22 06:53:17 51°13.664 2°55.961 126.9 -999 27 -999
2009-06-22 06:53:22 51°13.664 2°55.961 126.9 -999 188 -999
2009-06-22 06:53:27 51°13.664 2°55.961 126.8 -999 111 -999
2009-06-22 06:53:32 51°13.664 2°55.961 126.8 -999 264 -999
2009-06-22 06:53:37 51°13.664 2°55.961 126.8 -999 46 -999
2009-06-22 06:53:41 51°13.664 2°55.961 126.8 -999 74 -999
2009-06-22 06:53:47 51°13.664 2°55.961 126.6 -999 337 -999
2009-06-22 06:53:52 51°13.663 2°55.961 126.5 -999 320 5
2009-06-22 06:53:56 51°13.663 2°55.961 126.4 -999 249 4.8
2009-06-22 06:54:01 51°13.663 2°55.961 126.3 -999 285 4.8
2009-06-22 06:54:06 51°13.663 2°55.96 126.2 -999 111 4.8
2009-06-22 06:54:11 51°13.662 2°55.96 126.2 0.1 60 4.8
2009-06-22 06:54:16 51°13.662 2°55.959 126.2 -999 60 4.7
2009-06-22 06:54:20 51°13.662 2°55.959 126.2 -999 144 4.8
2009-06-22 06:54:25 51°13.662 2°55.959 126.2 0.1 218 4.8
2009-06-22 06:54:31 51°13.662 2°55.959 126.2 -999 213 4.9
2009-06-22 06:54:36 51°13.662 2°55.959 126.3 -999 79 4.8
2009-06-22 06:54:41 51°13.662 2°55.959 126.3 -999 231 -999
2009-06-22 06:54:47 51°13.662 2°55.959 126.3 -999 218 -999
2009-06-22 06:54:52 51°13.663 2°55.96 126.3 -999 59 4.8
2009-06-22 06:54:57 51°13.662 2°55.959 126.3 -999 233 4.8
2009-06-22 06:55:02 51°13.662 2°55.959 126.3 0.1 234 4.8
2009-06-22 06:55:06 51°13.662 2°55.959 126.3 0.1 230 4.8
2009-06-22 06:55:12 51°13.663 2°55.96 126.3 -999 74 -999
2009-06-22 06:55:17 51°13.662 2°55.96 126.3 -999 58 -999
2009-06-22 06:55:22 51°13.662 2°55.959 126.3 0.1 228 -999
2009-06-22 06:55:27 51°13.662 2°55.96 126.2 0.1 231 4.8
2009-06-22 06:55:31 51°13.663 2°55.96 126.2 -999 73 4.8
2009-06-22 06:55:36 51°13.663 2°55.96 126.1 0.1 79 -999
2009-06-22 06:55:41 51°13.663 2°55.96 126.1 -999 208 4.7
2009-06-22 06:55:46 51°13.663 2°55.96 126.1 0.1 231 -999
2009-06-22 06:55:52 51°13.663 2°55.96 126.1 -999 203 -999
2009-06-22 06:55:57 51°13.663 2°55.96 126.3 -999 187 -999
2009-06-22 06:56:01 51°13.662 2°55.96 126.3 0.1 227 4.8
2009-06-22 06:56:07 51°13.662 2°55.96 126.4 -999 99 -999
2009-06-22 06:56:12 51°13.662 2°55.96 126.4 -999 301 -999
2009-06-22 06:56:17 51°13.662 2°55.96 126.5 -999 234 -999
2009-06-22 06:56:22 51°13.662 2°55.96 126.5 0.1 218 -999
2009-06-22 06:56:27 51°13.662 2°55.96 126.5 -999 171 -999
2009-06-22 06:56:32 51°13.662 2°55.96 126.6 -999 241 -999
2009-06-22 06:56:37 51°13.662 2°55.96 126.6 0.1 237 -999
2009-06-22 06:56:42 51°13.662 2°55.959 126.6 0.1 229 -999
2009-06-22 06:56:47 51°13.662 2°55.96 126.6 0.1 233 -999
2009-06-22 06:56:52 51°13.662 2°55.96 126.6 0.1 64 -999
2009-06-22 06:56:57 51°13.662 2°55.96 126.6 -999 52 4.8
2009-06-22 06:57:02 51°13.662 2°55.96 126.6 -999 220 -999
2009-06-22 06:57:07 51°13.662 2°55.96 126.6 -999 64 4.9
2009-06-22 06:57:12 51°13.662 2°55.96 126.6 -999 269 4.8
2009-06-22 06:57:17 51°13.662 2°55.96 126.6 -999 231 4.8
2009-06-22 06:57:21 51°13.662 2°55.96 126.6 -999 263 4.9
2009-06-22 06:57:26 51°13.662 2°55.96 126.6 0.1 224 -999
2009-06-22 06:57:31 51°13.663 2°55.961 126.6 0.1 61 4.8
2009-06-22 06:57:37 51°13.663 2°55.961 126.6 -999 78 -999
2009-06-22 06:57:41 51°13.663 2°55.96 126.6 -999 359 4.8
2009-06-22 06:57:46 51°13.663 2°55.96 126.6 -999 229 4.8
2009-06-22 06:57:51 51°13.663 2°55.96 126.5 0.1 232 4.8
2009-06-22 06:57:56 51°13.663 2°55.961 126.5 -999 204 -999
2009-06-22 06:58:01 51°13.663 2°55.961 126.5 -999 155 -999
2009-06-22 06:58:06 51°13.663 2°55.961 126.5 -999 187 4.8
2009-06-22 06:58:08 51°13.663 2°55.961 126.5 -999 209 4.9
2009-06-22 06:58:08 51°13.663 2°55.961 126.5 -999 140 4.8
2009-06-22 06:58:08 51°13.663 2°55.961 126.5 -999 39 4.8
2009-06-22 06:58:08 51°13.663 2°55.961 126.5 -999 5 4.8
2009-06-22 06:58:31 51°13.663 2°55.961 126.5 -999 22 4.9
2009-06-22 06:58:36 51°13.663 2°55.961 126.5 -999 201 -999
2009-06-22 06:58:41 51°13.663 2°55.961 126.5 -999 160 -999
2009-06-22 06:58:46 51°13.663 2°55.961 126.6 -999 271 -999
2009-06-22 06:58:52 51°13.663 2°55.961 126.6 -999 230 -999
2009-06-22 06:58:57 51°13.663 2°55.961 126.7 -999 224 -999
2009-06-22 06:59:01 51°13.663 2°55.961 126.7 -999 284 4.9
2009-06-22 06:59:07 51°13.663 2°55.961 126.7 -999 38 -999
2009-06-22 06:59:12 51°13.663 2°55.961 126.7 -999 201 -999
2009-06-22 06:59:17 51°13.663 2°55.961 126.7 -999 194 -999
2009-06-22 06:59:22 51°13.663 2°55.961 126.7 -999 199 -999
2009-06-22 06:59:27 51°13.663 2°55.961 126.7 -999 107 -999
2009-06-22 06:59:32 51°13.663 2°55.961 126.7 -999 54 -999
2009-06-22 06:59:37 51°13.663 2°55.96 126.8 -999 221 -999
2009-06-22 06:59:41 51°13.663 2°55.961 126.8 0.1 63 -999
2009-06-22 06:59:47 51°13.663 2°55.96 126.8 -999 69 -999
2009-06-22 06:59:52 51°13.663 2°55.961 126.8 -999 214 -999
2009-06-22 06:59:57 51°13.663 2°55.96 126.8 -999 239 -999
2009-06-22 07:00:02 51°13.663 2°55.961 126.8 -999 345 -999
2009-06-22 07:00:07 51°13.663 2°55.96 126.8 -999 221 -999
2009-06-22 07:00:12 51°13.663 2°55.96 126.7 -999 227 4.9
2009-06-22 07:00:17 51°13.663 2°55.96 126.7 -999 221 -999
2009-06-22 07:00:21 51°13.662 2°55.96 126.6 0.1 220 -999
2009-06-22 07:00:27 51°13.662 2°55.96 126.6 0.1 201 5
2009-06-22 07:00:32 51°13.662 2°55.96 126.6 -999 175 4.9
2009-06-22 07:00:37 51°13.662 2°55.96 126.5 -999 56 -999
2009-06-22 07:00:42 51°13.662 2°55.961 126.5 0.1 46 -999
2009-06-22 07:00:47 51°13.662 2°55.96 126.5 0.1 44 4.9
2009-06-22 07:00:52 51°13.662 2°55.96 126.4 0.1 234 4.9
2009-06-22 07:00:56 51°13.662 2°55.96 126.4 0.1 222 4.9
2009-06-22 07:01:01 51°13.662 2°55.96 126.4 0.1 218 -999
2009-06-22 07:01:07 51°13.662 2°55.96 126.5 0.1 72 -999
2009-06-22 07:01:12 51°13.662 2°55.96 126.5 0.1 51 -999
2009-06-22 07:01:17 51°13.662 2°55.96 126.5 -999 49 -999
2009-06-22 07:01:22 51°13.663 2°55.96 126.6 -999 356 4.9
2009-06-22 07:01:26 51°13.663 2°55.96 126.6 -999 80 4.9
2009-06-22 07:01:31 51°13.663 2°55.96 126.6 -999 200 4.9
2009-06-22 07:01:36 51°13.663 2°55.96 126.6 -999 152 4.9
2009-06-22 07:01:41 51°13.663 2°55.96 126.6 0.1 73 -999
2009-06-22 07:01:47 51°13.664 2°55.96 126.6 0.1 46 4.9
2009-06-22 07:01:52 51°13.664 2°55.96 126.6 0.1 43 -999
2009-06-22 07:01:56 51°13.664 2°55.96 126.6 0.1 40 4.9
2009-06-22 07:02:01 51°13.664 2°55.96 126.6 0.1 39 4.9
2009-06-22 07:02:06 51°13.664 2°55.96 126.6 -999 40 4.9
2009-06-22 07:02:11 51°13.663 2°55.96 126.6 0.1 44 4.9
2009-06-22 07:02:16 51°13.662 2°55.96 126.6 -999 225 -999
2009-06-22 07:02:21 51°13.662 2°55.96 126.6 0.1 214 4.9
2009-06-22 07:02:27 51°13.663 2°55.96 126.5 -999 64 -999
2009-06-22 07:02:32 51°13.663 2°55.96 126.5 -999 47 -999
2009-06-22 07:02:37 51°13.663 2°55.96 126.5 0.1 223 -999
2009-06-22 07:02:41 51°13.663 2°55.96 126.5 -999 205 -999
2009-06-22 07:02:47 51°13.663 2°55.96 126.5 -999 205 -999
2009-06-22 07:02:52 51°13.663 2°55.96 126.4 -999 264 -999
2009-06-22 07:02:57 51°13.663 2°55.96 126.4 -999 182 4.9
2009-06-22 07:03:01 51°13.663 2°55.96 126.4 -999 189 4.9
2009-06-22 07:03:07 51°13.663 2°55.96 126.4 0.1 131 -999
2009-06-22 07:03:12 51°13.663 2°55.96 126.6 0.1 148 5
2009-06-22 07:03:17 51°13.662 2°55.96 127 0.1 130 5
2009-06-22 07:03:21 51°13.662 2°55.96 127.6 0.1 47 5
2009-06-22 07:03:27 51°13.662 2°55.959 128.1 0.1 219 -999
2009-06-22 07:03:32 51°13.662 2°55.959 128.2 0.1 222 -999
2009-06-22 07:03:37 51°13.662 2°55.959 128.2 0.1 224 5
2009-06-22 07:03:42 51°13.662 2°55.959 128.1 0.1 207 -999
2009-06-22 07:03:47 51°13.663 2°55.96 128.1 -999 194 -999
2009-06-22 07:03:52 51°13.663 2°55.96 128.1 -999 52 -999
2009-06-22 07:03:57 51°13.662 2°55.959 128.1 0.1 228 -999
2009-06-22 07:04:02 51°13.663 2°55.96 128.1 -999 192 -999
2009-06-22 07:04:07 51°13.662 2°55.959 128.1 -999 224 -999
2009-06-22 07:04:12 51°13.662 2°55.959 128.1 0.1 215 5.1
2009-06-22 07:04:17 51°13.663 2°55.96 128.1 -999 62 5.1
2009-06-22 07:04:21 51°13.663 2°55.96 128.1 -999 35 5.1
2009-06-22 07:04:26 51°13.663 2°55.96 128.1 -999 36 5.1
2009-06-22 07:04:31 51°13.663 2°55.959 128.1 -999 251 5.1
2009-06-22 07:04:37 51°13.663 2°55.96 128.1 -999 48 5.1
2009-06-22 07:04:41 51°13.663 2°55.96 128.1 -999 216 5
2009-06-22 07:04:46 51°13.663 2°55.96 128.1 -999 85 5
2009-06-22 07:04:52 51°13.663 2°55.96 128.1 0.1 56 -999
2009-06-22 07:04:57 51°13.663 2°55.96 128.1 -999 42 5
2009-06-22 07:05:01 51°13.663 2°55.96 128.2 -999 214 5
2009-06-22 07:05:07 51°13.663 2°55.96 128.5 -999 207 -999
2009-06-22 07:05:12 51°13.663 2°55.959 128.6 -999 215 -999
2009-06-22 07:05:17 51°13.663 2°55.96 128.7 -999 185 5.1
2009-06-22 07:05:22 51°13.663 2°55.959 128.9 -999 54 -999
2009-06-22 07:05:27 51°13.663 2°55.959 128.9 -999 22 -999
2009-06-22 07:05:32 51°13.663 2°55.96 128.9 -999 88 -999
2009-06-22 07:05:37 51°13.663 2°55.96 128.7 0.1 167 5
2009-06-22 07:05:41 51°13.663 2°55.96 128.3 0.1 164 -999
2009-06-22 07:05:47 51°13.663 2°55.96 127.8 -999 133 -999
2009-06-22 07:05:52 51°13.663 2°55.96 127.1 0.1 209 -999
2009-06-22 07:05:57 51°13.663 2°55.96 126.3 0.1 221 -999
2009-06-22 07:06:01 51°13.663 2°55.96 125.8 -999 203 -999
2009-06-22 07:06:07 51°13.663 2°55.96 125.6 -999 152 -999
2009-06-22 07:06:12 51°13.663 2°55.96 125.2 -999 157 -999
2009-06-22 07:06:17 51°13.662 2°55.96 125 -999 153 5
2009-06-22 07:06:22 51°13.663 2°55.96 124.7 -999 193 -999
2009-06-22 07:06:27 51°13.663 2°55.96 124.3 -999 57 -999
2009-06-22 07:06:32 51°13.663 2°55.96 123.9 -999 201 -999
2009-06-22 07:06:37 51°13.663 2°55.96 123.6 -999 124 5
2009-06-22 07:06:42 51°13.662 2°55.96 123.2 -999 189 -999
2009-06-22 07:06:47 51°13.662 2°55.96 122.8 0.1 203 -999
2009-06-22 07:06:52 51°13.662 2°55.96 122.3 0.1 196 -999
2009-06-22 07:06:57 51°13.663 2°55.96 121.9 -999 175 -999
2009-06-22 07:07:02 51°13.662 2°55.96 121.5 0.1 51 5.1
2009-06-22 07:07:07 51°13.662 2°55.96 121 -999 48 5.1
2009-06-22 07:07:12 51°13.662 2°55.96 120.5 0.1 199 5.1
2009-06-22 07:07:17 51°13.662 2°55.96 119.8 -999 196 -999
2009-06-22 07:07:21 51°13.662 2°55.96 119.2 0.1 191 -999
2009-06-22 07:07:27 51°13.662 2°55.96 118.5 -999 75 5.2
2009-06-22 07:07:32 51°13.662 2°55.96 117.9 0.1 143 -999
2009-06-22 07:07:37 51°13.662 2°55.96 117.1 0.1 181 -999
2009-06-22 07:07:41 51°13.662 2°55.96 116.3 -999 130 5.2
2009-06-22 07:07:47 51°13.662 2°55.96 115.7 0.1 140 5.2
2009-06-22 07:07:52 51°13.662 2°55.96 114.9 -999 165 -999
2009-06-22 07:07:57 51°13.662 2°55.96 114 -999 198 -999
2009-06-22 07:08:02 51°13.662 2°55.959 113.2 0.1 279 -999
2009-06-22 07:08:07 51°13.661 2°55.959 112.7 0.3 283 -999
2009-06-22 07:08:12 51°13.661 2°55.958 112.5 0.5 298 -999
2009-06-22 07:08:17 51°13.662 2°55.956 112.5 0.8 294 -999
2009-06-22 07:08:21 51°13.662 2°55.953 112.6 1.2 298 5.2
2009-06-22 07:08:26 51°13.663 2°55.95 112.9 1.5 292 5.2
2009-06-22 07:08:31 51°13.664 2°55.946 113.3 2 295 5.2
2009-06-22 07:08:37 51°13.666 2°55.94 114 2.5 294 -999
2009-06-22 07:08:42 51°13.668 2°55.934 114.5 2.9 295 -999
2009-06-22 07:08:47 51°13.67 2°55.928 114.9 3.3 297 -999
2009-06-22 07:08:52 51°13.672 2°55.92 115.7 3.6 296 -999
2009-06-22 07:08:57 51°13.675 2°55.913 115.9 3.9 299 -999
2009-06-22 07:09:02 51°13.678 2°55.905 115.7 4 296 -999
2009-06-22 07:09:07 51°13.68 2°55.897 114.7 3.8 296 -999
2009-06-22 07:09:12 51°13.682 2°55.89 112.6 3.6 292 -999
2009-06-22 07:09:17 51°13.684 2°55.883 110.4 3.4 293 -999
2009-06-22 07:09:22 51°13.685 2°55.877 108.6 3.3 290 -999
2009-06-22 07:09:27 51°13.687 2°55.87 107 3.1 290 -999
2009-06-22 07:09:32 51°13.688 2°55.864 106.1 3.1 288 6
2009-06-22 07:09:37 51°13.689 2°55.858 105.2 3 289 6.1
2009-06-22 07:09:41 51°13.69 2°55.852 104.1 2.9 287 6.3
2009-06-22 07:09:46 51°13.691 2°55.846 103.1 2.9 286 6.9
2009-06-22 07:09:51 51°13.692 2°55.84 101.5 2.9 284 5.4
2009-06-22 07:09:56 51°13.693 2°55.833 99.9 2.9 284 7.5
2009-06-22 07:10:00 51°13.694 2°55.829 98.1 2.9 281 7.8
2009-06-22 07:10:05 51°13.694 2°55.822 96.1 2.9 280 -999
2009-06-22 07:10:11 51°13.695 2°55.814 93.7 3 277 -999
2009-06-22 07:10:16 51°13.696 2°55.808 90.9 3 275 -999
2009-06-22 07:10:21 51°13.696 2°55.801 88.6 3 273 -999
2009-06-22 07:10:27 51°13.696 2°55.793 85.7 3 270 -999
2009-06-22 07:10:32 51°13.696 2°55.787 83.1 2.8 267 -999
2009-06-22 07:10:37 51°13.695 2°55.78 81 2.8 265 -999
2009-06-22 07:10:42 51°13.695 2°55.775 78.9 2.7 264 -999
2009-06-22 07:10:47 51°13.694 2°55.769 77 2.6 262 -999
2009-06-22 07:10:52 51°13.693 2°55.763 75.5 2.5 261 -999
2009-06-22 07:10:57 51°13.692 2°55.758 74 2.3 258 11.6
2009-06-22 07:11:01 51°13.692 2°55.755 72.8 1.9 256 -999
2009-06-22 07:11:07 51°13.692 2°55.752 70.8 1.3 262 12
2009-06-22 07:11:11 51°13.692 2°55.751 68.6 0.8 265 11.9
2009-06-22 07:11:16 51°13.692 2°55.75 64.7 0.5 282 11.9
2009-06-22 07:11:21 51°13.692 2°55.749 61.1 0.3 299 11.9
2009-06-22 07:11:26 51°13.692 2°55.749 56.7 0.4 356 12
2009-06-22 07:11:30 51°13.693 2°55.75 51.8 0.6 16 12
2009-06-22 07:11:35 51°13.695 2°55.751 46.6 1.1 19 12.1
2009-06-22 07:11:40 51°13.697 2°55.752 40.8 1.3 19 12.2
2009-06-22 07:11:45 51°13.698 2°55.752 35.1 1.3 19 12
2009-06-22 07:11:49 51°13.7 2°55.753 29.5 1.3 17 11.9
2009-06-22 07:11:54 51°13.702 2°55.753 24 1.3 10 12.1
2009-06-22 07:11:59 51°13.703 2°55.754 19.4 1.1 6 12
2009-06-22 07:12:04 51°13.704 2°55.754 15.9 0.6 4 11.9
2009-06-22 07:12:09 51°13.704 2°55.753 12.3 0.2 342 11.9
2009-06-22 07:12:13 51°13.704 2°55.753 8.1 0.3 197 11.9
2009-06-22 07:12:17 51°13.703 2°55.753 4.4 0.7 183 11.9
2009-06-22 07:12:23 51°13.701 2°55.753 1.4 1.1 184 11.9
2009-06-22 07:12:28 51°13.7 2°55.753 358.5 1.1 182 12
2009-06-22 07:12:33 51°13.698 2°55.753 355.9 0.9 180 -999
2009-06-22 07:12:39 51°13.697 2°55.753 353.7 0.5 193 -999
2009-06-22 07:12:45 51°13.698 2°55.752 351.1 0.2 280 -999
2009-06-22 07:12:51 51°13.699 2°55.751 346.8 0.9 332 -999
2009-06-22 07:12:56 51°13.701 2°55.749 341.9 1.5 335 -999
2009-06-22 07:13:01 51°13.704 2°55.747 337.2 1.7 325 -999
2009-06-22 07:13:07 51°13.707 2°55.744 333.8 2 330 11.4
2009-06-22 07:13:11 51°13.709 2°55.742 331.9 2.2 329 11.8
2009-06-22 07:13:17 51°13.713 2°55.738 330.3 2.5 327 12.2
2009-06-22 07:13:21 51°13.715 2°55.736 329.5 2.7 325 11.4
2009-06-22 07:13:26 51°13.719 2°55.732 328.7 3.1 327 11.5
2009-06-22 07:13:30 51°13.722 2°55.728 328.5 3.5 325 11
2009-06-22 07:13:36 51°13.727 2°55.723 328.4 3.9 326 10.6
2009-06-22 07:13:40 51°13.731 2°55.719 328.7 4.3 326 10.7
2009-06-22 07:13:45 51°13.737 2°55.713 328.9 4.6 327 10.8
2009-06-22 07:13:49 51°13.741 2°55.709 329.4 4.9 328 10.8
2009-06-22 07:13:54 51°13.747 2°55.703 329.9 5.1 329 10.4
2009-06-22 07:13:59 51°13.753 2°55.697 330.3 5.2 327 9.7
2009-06-22 07:14:04 51°13.76 2°55.691 330.7 5.3 329 9.3
2009-06-22 07:14:09 51°13.766 2°55.685 331.1 5.3 328 9.3
2009-06-22 07:14:13 51°13.771 2°55.68 331.5 5.4 329 9.5
2009-06-22 07:14:18 51°13.778 2°55.674 331.8 5.6 331 9.7
2009-06-22 07:14:24 51°13.786 2°55.667 332.2 5.6 330 9.7
2009-06-22 07:14:28 51°13.792 2°55.662 332.7 5.7 330 9.9
2009-06-22 07:14:33 51°13.799 2°55.656 333.2 5.8 333 9.9
2009-06-22 07:14:38 51°13.806 2°55.65 334 5.6 332 9.7
2009-06-22 07:14:44 51°13.815 2°55.644 334.7 5.6 334 9.7
2009-06-22 07:14:48 51°13.82 2°55.639 335.7 5.5 337 9.7
2009-06-22 07:14:53 51°13.827 2°55.634 337.2 5.2 337 9.5
2009-06-22 07:14:58 51°13.833 2°55.63 340.4 4.9 340 9.6
2009-06-22 07:15:04 51°13.841 2°55.628 344.8 4.7 344 9.7
2009-06-22 07:15:09 51°13.847 2°55.626 349.8 4.5 349 9.7
2009-06-22 07:15:13 51°13.852 2°55.626 354.2 4.3 354 9.5
2009-06-22 07:15:18 51°13.857 2°55.626 358.2 4.1 358 9.5
2009-06-22 07:15:23 51°13.863 2°55.626 1.7 4 1 8.9
2009-06-22 07:15:28 51°13.868 2°55.626 4.9 3.8 4 8.8
2009-06-22 07:15:33 51°13.873 2°55.627 8 3.5 6 8.7
2009-06-22 07:15:38 51°13.878 2°55.628 10.9 3.4 8 8.4
2009-06-22 07:15:44 51°13.883 2°55.63 13.5 3.3 11 8.7
2009-06-22 07:15:48 51°13.887 2°55.632 16.1 3.3 13 9
2009-06-22 07:15:53 51°13.891 2°55.633 18.3 3.2 13 9
2009-06-22 07:15:58 51°13.896 2°55.635 19.3 3.2 14 9
2009-06-22 07:16:04 51°13.9 2°55.636 18.2 3.1 11 9
2009-06-22 07:16:08 51°13.903 2°55.637 15.4 3 9 9.2
2009-06-22 07:16:13 51°13.908 2°55.638 12.2 2.9 6 9.3
2009-06-22 07:16:18 51°13.911 2°55.638 8.8 2.8 4 9.2
2009-06-22 07:16:24 51°13.916 2°55.639 5.9 2.7 2 9.2
2009-06-22 07:16:28 51°13.919 2°55.639 3.4 2.6 1 8.9
2009-06-22 07:16:33 51°13.922 2°55.639 1.5 2.4 359 8.6
2009-06-22 07:16:38 51°13.925 2°55.639 -999 2.1 359 8.9
2009-06-22 07:16:44 51°13.928 2°55.639 357.9 1.7 358 9.7
2009-06-22 07:16:48 51°13.93 2°55.639 355.2 1.5 356 10.1
2009-06-22 07:16:53 51°13.932 2°55.638 352.2 1.5 352 9.2
2009-06-22 07:16:58 51°13.934 2°55.638 349.9 1.4 352 9.3
2009-06-22 07:17:04 51°13.936 2°55.637 347.7 1.2 348 9.4
2009-06-22 07:17:08 51°13.937 2°55.637 345.7 1.2 350 9.3
2009-06-22 07:17:13 51°13.939 2°55.636 343.9 1.2 347 9.7
2009-06-22 07:17:18 51°13.94 2°55.636 342.1 1.1 345 10
2009-06-22 07:17:24 51°13.942 2°55.635 340.3 1 345 10
2009-06-22 07:17:28 51°13.942 2°55.635 338.3 0.8 340 9.8
2009-06-22 07:17:33 51°13.944 2°55.634 336.4 0.8 338 9.8
2009-06-22 07:17:38 51°13.944 2°55.634 334.7 0.6 342 10
2009-06-22 07:17:44 51°13.945 2°55.633 332.9 0.4 345 10.1
2009-06-22 07:17:48 51°13.945 2°55.633 331.3 0.3 356 10.4
2009-06-22 07:17:53 51°13.945 2°55.633 330 0.1 5 10.4
2009-06-22 07:17:58 51°13.945 2°55.632 328.8 0.1 334 10.3
2009-06-22 07:18:04 51°13.945 2°55.632 327.8 0.1 261 10.4
2009-06-22 07:18:08 51°13.945 2°55.632 326.7 0.2 334 10.5
2009-06-22 07:18:13 51°13.945 2°55.631 326 0.2 310 10.5
2009-06-22 07:18:18 51°13.946 2°55.631 325.3 0.3 315 10.6
2009-06-22 07:18:24 51°13.946 2°55.63 325 0.5 322 10.7
2009-06-22 07:18:28 51°13.947 2°55.629 324.8 0.8 330 10.8
2009-06-22 07:18:33 51°13.948 2°55.627 324.8 1 325 10.9
2009-06-22 07:18:38 51°13.95 2°55.626 325.1 1.4 329 10.5
2009-06-22 07:18:44 51°13.952 2°55.623 325.5 1.8 327 10.7
2009-06-22 07:18:48 51°13.954 2°55.62 325.9 2.1 325 10.4
2009-06-22 07:18:53 51°13.957 2°55.617 326.2 2.4 326 10.5
2009-06-22 07:18:58 51°13.959 2°55.614 326.4 2.6 322 10.3
2009-06-22 07:19:04 51°13.964 2°55.609 326.5 3 324 10.5
2009-06-22 07:19:08 51°13.967 2°55.606 326.7 3.3 326 10.4
2009-06-22 07:19:13 51°13.971 2°55.601 327.4 3.6 325 10.5
2009-06-22 07:19:18 51°13.976 2°55.596 327.9 4 328 10.4
2009-06-22 07:19:24 51°13.981 2°55.59 328 4.2 326 10.2
2009-06-22 07:19:28 51°13.986 2°55.586 327.7 4.6 327 10.1
2009-06-22 07:19:33 51°13.992 2°55.579 327.5 4.9 326 10
2009-06-22 07:19:38 51°13.998 2°55.573 327.3 5.3 326 10.1
2009-06-22 07:19:44 51°14.005 2°55.564 327.2 5.7 325 10
2009-06-22 07:19:48 51°14.011 2°55.558 327.3 6 325 9.7
2009-06-22 07:19:53 51°14.018 2°55.549 327.2 6.4 323 10
2009-06-22 07:19:58 51°14.025 2°55.541 326.6 6.7 324 9.9
2009-06-22 07:20:04 51°14.035 2°55.53 326.8 6.9 324 9.7
2009-06-22 07:20:08 51°14.041 2°55.523 327.4 7.1 325 9.7
2009-06-22 07:20:13 51°14.05 2°55.513 327.4 7.4 325 9.4
2009-06-22 07:20:18 51°14.059 2°55.503 326.8 7.7 325 9.6
2009-06-22 07:20:24 51°14.07 2°55.491 326.7 7.9 325 9.5
2009-06-22 07:20:28 51°14.077 2°55.483 327.1 8.1 325 9.7
2009-06-22 07:20:33 51°14.086 2°55.473 327.9 8.3 326 9.7
2009-06-22 07:20:38 51°14.096 2°55.462 328 8.4 325 9.7
2009-06-22 07:20:44 51°14.107 2°55.449 327.5 8.6 325 9.7
2009-06-22 07:20:48 51°14.116 2°55.44 327.9 8.7 326 9.6
2009-06-22 07:20:53 51°14.126 2°55.43 328.6 8.8 327 9.7
2009-06-22 07:20:58 51°14.136 2°55.419 328.5 8.9 326 9.6
2009-06-22 07:21:04 51°14.148 2°55.405 328.1 8.9 325 9.6
2009-06-22 07:21:08 51°14.156 2°55.396 328 8.9 325 9.4
2009-06-22 07:21:13 51°14.166 2°55.384 327.4 9 324 9.2
2009-06-22 07:21:18 51°14.176 2°55.373 326.5 9 323 9.6
2009-06-22 07:21:24 51°14.188 2°55.358 325.1 9 322 9.6
2009-06-22 07:21:28 51°14.196 2°55.348 324.3 9 321 9.7
2009-06-22 07:21:33 51°14.205 2°55.335 323.3 9.1 320 9.7
2009-06-22 07:21:38 51°14.215 2°55.322 322.6 9 319 9.6
2009-06-22 07:21:44 51°14.226 2°55.305 322.3 9 318 9.6
2009-06-22 07:21:48 51°14.233 2°55.295 321 9 317 9.7
2009-06-22 07:21:53 51°14.242 2°55.281 319.4 9.1 315 9.9
2009-06-22 07:21:58 51°14.251 2°55.266 318.1 9.1 315 9.7
2009-06-22 07:22:04 51°14.261 2°55.248 316.7 9.1 313 9.7
2009-06-22 07:22:08 51°14.268 2°55.236 315.8 9.2 312 9.4
2009-06-22 07:22:13 51°14.277 2°55.221 314.2 9.2 311 9.5
2009-06-22 07:22:18 51°14.286 2°55.206 314.4 9.3 313 9.6
2009-06-22 07:22:24 51°14.296 2°55.188 315 9.3 313 9.5
2009-06-22 07:22:28 51°14.303 2°55.176 314.3 9.4 312 9.6
2009-06-22 07:22:33 51°14.311 2°55.159 312.6 9.4 310 9.4
2009-06-22 07:22:38 51°14.319 2°55.143 311.2 9.4 309 9.5
2009-06-22 07:22:44 51°14.329 2°55.123 310 9.4 307 9.6
2009-06-22 07:22:48 51°14.335 2°55.11 309.3 9.5 306 9.6
2009-06-22 07:22:53 51°14.343 2°55.092 308.6 9.6 306 9.6
2009-06-22 07:22:58 51°14.351 2°55.075 307.9 9.6 306 9.6
2009-06-22 07:23:04 51°14.36 2°55.054 307.9 9.7 306 9.6
2009-06-22 07:23:08 51°14.366 2°55.04 307.8 9.7 304 9.4
2009-06-22 07:23:13 51°14.373 2°55.021 305.9 9.9 300 9.5
2009-06-22 07:23:18 51°14.38 2°55.001 304.3 10 298 9.3
2009-06-22 07:23:24 51°14.387 2°54.978 302.5 10 296 9
2009-06-22 07:23:28 51°14.391 2°54.961 299.6 10.2 292 9.2
2009-06-22 07:23:33 51°14.395 2°54.939 295.6 10.4 287 9
2009-06-22 07:23:38 51°14.398 2°54.916 292.4 10.6 283 9.3
2009-06-22 07:23:44 51°14.402 2°54.887 287.9 10.9 280 9.3
2009-06-22 07:23:48 51°14.403 2°54.868 284 11 277 9.1
2009-06-22 07:23:53 51°14.404 2°54.843 281.3 11.3 275 9.3
2009-06-22 07:23:58 51°14.405 2°54.817 280.5 11.5 273 9.3
2009-06-22 07:24:04 51°14.404 2°54.786 278.3 11.6 269 9.3
2009-06-22 07:24:08 51°14.403 2°54.765 273.4 11.8 266 9.1
2009-06-22 07:24:13 51°14.401 2°54.74 269.6 11.9 262 9.2
2009-06-22 07:24:18 51°14.398 2°54.713 266.5 12 259 9.3
2009-06-22 07:24:24 51°14.393 2°54.682 263.1 12.1 257 9.2
2009-06-22 07:24:28 51°14.39 2°54.662 259.2 12.1 255 9.3
2009-06-22 07:24:33 51°14.387 2°54.635 260 12.2 260 9.3
2009-06-22 07:24:38 51°14.383 2°54.609 261.9 12.2 259 9.3
2009-06-22 07:24:44 51°14.38 2°54.576 262.8 12.4 261 9.3
2009-06-22 07:24:48 51°14.377 2°54.555 263.8 12.4 260 9
2009-06-22 07:24:53 51°14.375 2°54.528 265 12.3 261 8.8
2009-06-22 07:24:58 51°14.372 2°54.501 265.9 12.3 261 8.7
2009-06-22 07:25:04 51°14.367 2°54.469 263.3 12.5 257 8.6
2009-06-22 07:25:08 51°14.365 2°54.447 262.3 12.5 259 8.6
2009-06-22 07:25:13 51°14.361 2°54.42 261.7 12.5 256 8.5
2009-06-22 07:25:18 51°14.357 2°54.394 261.1 12.4 257 8.7
2009-06-22 07:25:24 51°14.351 2°54.362 260.5 12.5 255 8.6
2009-06-22 07:25:28 51°14.347 2°54.341 257.7 12.6 252 8.4
2009-06-22 07:25:33 51°14.342 2°54.314 256.3 12.5 253 8.5
2009-06-22 07:25:38 51°14.336 2°54.288 254.9 12.6 250 8.6
2009-06-22 07:25:44 51°14.328 2°54.257 253.7 12.6 250 8.6
2009-06-22 07:25:48 51°14.323 2°54.236 252.7 12.6 248 8.6
2009-06-22 07:25:53 51°14.316 2°54.209 251.5 12.8 248 8.4
2009-06-22 07:25:58 51°14.31 2°54.184 251.1 12.8 247 8.5
2009-06-22 07:26:04 51°14.301 2°54.153 250.2 12.8 246 8.4
2009-06-22 07:26:08 51°14.295 2°54.132 249.2 12.8 246 8.3
2009-06-22 07:26:13 51°14.289 2°54.106 249.5 12.8 246 8.4
2009-06-22 07:26:18 51°14.281 2°54.08 249 12.9 246 8.3
2009-06-22 07:26:24 51°14.272 2°54.05 248.5 12.8 245 8.3
2009-06-22 07:26:28 51°14.266 2°54.03 248.1 12.8 244 8.3
2009-06-22 07:26:33 51°14.259 2°54.004 247.3 12.9 244 8.5
2009-06-22 07:26:38 51°14.251 2°53.979 247 12.8 245 8.3
2009-06-22 07:26:44 51°14.241 2°53.948 246.8 12.9 243 8.3
2009-06-22 07:26:48 51°14.235 2°53.928 246.6 12.8 244 8.4
2009-06-22 07:26:53 51°14.227 2°53.902 246.9 12.8 245 8.4
2009-06-22 07:26:58 51°14.22 2°53.877 247.1 12.9 243 8.5
2009-06-22 07:27:04 51°14.21 2°53.846 246.6 12.9 244 8.5
2009-06-22 07:27:08 51°14.204 2°53.826 246.5 12.9 244 8.6
2009-06-22 07:27:13 51°14.196 2°53.8 246.5 12.8 244 8.5
2009-06-22 07:27:18 51°14.188 2°53.775 246.6 12.9 244 8.5
2009-06-22 07:27:24 51°14.179 2°53.744 246.9 12.8 244 8.6
2009-06-22 07:27:28 51°14.173 2°53.724 247.1 12.8 244 8.5
2009-06-22 07:27:33 51°14.166 2°53.698 247.1 12.8 244 8.6
2009-06-22 07:27:38 51°14.158 2°53.673 246.9 12.7 245 8.5
2009-06-22 07:27:44 51°14.148 2°53.642 246.9 12.8 244 8.6
2009-06-22 07:27:48 51°14.142 2°53.622 246.8 12.8 244 8.7
2009-06-22 07:27:53 51°14.135 2°53.597 246.9 12.8 244 8.7
2009-06-22 07:27:58 51°14.127 2°53.571 247.3 12.8 244 8.7
2009-06-22 07:28:04 51°14.118 2°53.541 247.5 12.7 246 8.7
2009-06-22 07:28:08 51°14.112 2°53.521 247.8 12.6 245 8.7
2009-06-22 07:28:13 51°14.105 2°53.495 248 12.6 246 8.8
2009-06-22 07:28:18 51°14.098 2°53.47 247.7 12.7 246 8.6
2009-06-22 07:28:24 51°14.089 2°53.439 248 12.7 246 8.7
2009-06-22 07:28:28 51°14.084 2°53.419 248.1 12.6 246 8.8
2009-06-22 07:28:33 51°14.076 2°53.393 248.4 12.7 245 8.9
2009-06-22 07:28:38 51°14.069 2°53.368 248 12.7 245 8.9
2009-06-22 07:28:44 51°14.059 2°53.338 246.1 12.6 242 9
2009-06-22 07:28:48 51°14.053 2°53.318 245.8 12.7 243 9.1
2009-06-22 07:28:53 51°14.045 2°53.293 245.2 12.8 243 9
2009-06-22 07:28:58 51°14.037 2°53.268 245.4 12.7 243 9.1
2009-06-22 07:29:04 51°14.028 2°53.238 245.7 12.7 244 9
2009-06-22 07:29:08 51°14.021 2°53.218 245.9 12.8 243 9.2
2009-06-22 07:29:13 51°14.013 2°53.193 245.9 12.7 243 9.1
2009-06-22 07:29:18 51°14.005 2°53.168 245 12.7 243 9.1
2009-06-22 07:29:24 51°13.995 2°53.137 245.1 12.8 243 9.1
2009-06-22 07:29:28 51°13.989 2°53.117 245.5 12.8 244 9.2
2009-06-22 07:29:33 51°13.981 2°53.091 246 12.8 243 9.2
2009-06-22 07:29:38 51°13.972 2°53.066 245.1 12.9 243 9.2
2009-06-22 07:29:44 51°13.962 2°53.036 245.1 12.8 242 9.3
2009-06-22 07:29:48 51°13.955 2°53.016 243.9 12.8 240 9.3
2009-06-22 07:29:53 51°13.947 2°52.992 242.7 12.8 241 9.3
2009-06-22 07:29:58 51°13.938 2°52.967 242.5 12.8 240 9.4
2009-06-22 07:30:04 51°13.927 2°52.938 242 12.7 240 9.4
2009-06-22 07:30:08 51°13.92 2°52.918 241.9 12.9 240 9.4
2009-06-22 07:30:13 51°13.911 2°52.893 241.8 12.8 240 9.3
2009-06-22 07:30:18 51°13.902 2°52.869 241.8 12.8 240 9.3
2009-06-22 07:30:24 51°13.891 2°52.839 241.5 12.8 241 9.3
2009-06-22 07:30:28 51°13.883 2°52.82 241.8 12.8 238 9.6
2009-06-22 07:30:33 51°13.875 2°52.795 241.3 12.9 241 9.5
2009-06-22 07:30:38 51°13.865 2°52.771 241.6 12.9 238 9.4
2009-06-22 07:30:44 51°13.854 2°52.741 241 13 240 9.5
2009-06-22 07:30:48 51°13.847 2°52.722 241.8 12.9 238 9.5
2009-06-22 07:30:53 51°13.838 2°52.697 241.1 12.8 240 9.5
2009-06-22 07:30:58 51°13.829 2°52.674 240.8 12.8 237 9.4
2009-06-22 07:31:04 51°13.818 2°52.644 239.9 12.9 240 9.5
2009-06-22 07:31:08 51°13.81 2°52.626 240.3 12.8 236 9.6
2009-06-22 07:31:13 51°13.8 2°52.602 239.3 12.9 239 9.4
2009-06-22 07:31:18 51°13.79 2°52.578 239.7 12.8 236 9.6
2009-06-22 07:31:24 51°13.779 2°52.549 239.6 12.8 239 9.5
2009-06-22 07:31:28 51°13.772 2°52.53 239.6 12.8 237 9.6
2009-06-22 07:31:33 51°13.762 2°52.507 239.3 12.8 237 9.4
2009-06-22 07:31:38 51°13.753 2°52.482 239.2 12.9 238 9.3
2009-06-22 07:31:44 51°13.742 2°52.453 239.6 12.8 239 9.6
2009-06-22 07:31:48 51°13.734 2°52.434 241.1 12.9 238 9.6
2009-06-22 07:31:53 51°13.725 2°52.41 240.3 12.9 239 9.6
2009-06-22 07:31:58 51°13.716 2°52.385 241.2 12.8 239 9.7
2009-06-22 07:32:04 51°13.706 2°52.355 241.5 13 241 9.6
2009-06-22 07:32:08 51°13.698 2°52.335 242.8 12.9 240 9.7
2009-06-22 07:32:13 51°13.69 2°52.31 243.8 12.9 243 9.6
2009-06-22 07:32:18 51°13.682 2°52.285 244.1 12.8 241 9.7
2009-06-22 07:32:24 51°13.672 2°52.255 244 12.9 243 9.7
2009-06-22 07:32:28 51°13.665 2°52.235 243.9 12.8 241 9.7
2009-06-22 07:32:33 51°13.656 2°52.21 243.3 13 242 9.7
2009-06-22 07:32:38 51°13.647 2°52.185 243.5 13 241 9.7
2009-06-22 07:32:44 51°13.637 2°52.155 244.7 12.9 241 9.7
2009-06-22 07:32:48 51°13.63 2°52.135 243.6 12.9 241 9.7
2009-06-22 07:32:53 51°13.623 2°52.11 244.5 12.8 243 9.7
2009-06-22 07:32:58 51°13.614 2°52.085 244.4 12.8 241 9.8
2009-06-22 07:33:04 51°13.604 2°52.055 243.9 12.9 242 9.8
2009-06-22 07:33:08 51°13.597 2°52.035 244.3 12.8 241 9.9
2009-06-22 07:33:13 51°13.588 2°52.01 243.8 12.9 241 9.9
2009-06-22 07:33:18 51°13.579 2°51.985 243 12.9 240 9.9
2009-06-22 07:33:24 51°13.569 2°51.955 243.3 12.9 242 9.8
2009-06-22 07:33:28 51°13.562 2°51.935 243.2 12.9 240 9.8
2009-06-22 07:33:33 51°13.554 2°51.91 243.7 12.8 241 10
2009-06-22 07:33:38 51°13.545 2°51.885 243.2 12.9 242 9.8
2009-06-22 07:33:44 51°13.535 2°51.855 243.4 12.9 242 10
2009-06-22 07:33:48 51°13.528 2°51.835 244.7 12.9 241 9.9
2009-06-22 07:33:53 51°13.519 2°51.81 243.6 12.9 241 9.9
2009-06-22 07:33:58 51°13.511 2°51.785 243.7 12.9 241 10.1
2009-06-22 07:34:04 51°13.5 2°51.755 243.7 12.9 241 9.9
2009-06-22 07:34:08 51°13.493 2°51.735 243.2 13 241 10
2009-06-22 07:34:13 51°13.485 2°51.71 243.7 12.9 242 10
2009-06-22 07:34:18 51°13.476 2°51.686 244 12.9 241 10
2009-06-22 07:34:24 51°13.466 2°51.655 243.6 12.9 242 10
2009-06-22 07:34:28 51°13.459 2°51.636 243.5 12.9 241 9.9
2009-06-22 07:34:33 51°13.451 2°51.612 243.9 12.1 243 10
2009-06-22 07:34:38 51°13.444 2°51.59 245.4 11.3 242 10.2
2009-06-22 07:34:44 51°13.436 2°51.565 246.1 10.6 244 10.2
2009-06-22 07:34:48 51°13.432 2°51.549 246.9 9.9 245 10.2
2009-06-22 07:34:53 51°13.426 2°51.531 248.1 9.2 245 10.3
2009-06-22 07:34:58 51°13.422 2°51.513 249.3 8.6 247 10.3
2009-06-22 07:35:04 51°13.416 2°51.494 251 7.9 248 10.4
2009-06-22 07:35:08 51°13.414 2°51.482 253.2 7.4 248 10.2
2009-06-22 07:35:13 51°13.41 2°51.468 253.7 6.8 246 10.4
2009-06-22 07:35:18 51°13.406 2°51.456 252.1 6.2 245 10.5
2009-06-22 07:35:24 51°13.402 2°51.443 248.6 5.6 242 10.4
2009-06-22 07:35:28 51°13.399 2°51.434 245.1 5.3 241 10.3
2009-06-22 07:35:33 51°13.396 2°51.425 245.4 4.9 244 10.3
2009-06-22 07:35:38 51°13.394 2°51.416 247.8 4.6 244 10.2
2009-06-22 07:35:44 51°13.391 2°51.406 250.9 4.1 247 10.3
2009-06-22 07:35:49 51°13.389 2°51.398 254.9 3.8 248 10.3
2009-06-22 07:35:53 51°13.388 2°51.393 259.2 3.5 251 10.3
2009-06-22 07:35:58 51°13.386 2°51.386 263.5 3.2 249 10.4
2009-06-22 07:36:04 51°13.385 2°51.379 267.5 2.8 253 10.5
2009-06-22 07:36:08 51°13.384 2°51.375 271.5 2.5 251 10.5
2009-06-22 07:36:13 51°13.383 2°51.371 275.2 2.2 252 10.4
2009-06-22 07:36:18 51°13.382 2°51.367 278.4 1.9 246 10.3
2009-06-22 07:36:24 51°13.38 2°51.363 281.7 1.7 242 10.4
2009-06-22 07:36:28 51°13.38 2°51.36 284.6 1.6 236 10.4
2009-06-22 07:36:33 51°13.378 2°51.357 287.2 1.5 239 10.4
2009-06-22 07:36:38 51°13.377 2°51.355 289 1.5 239 10.4
2009-06-22 07:36:44 51°13.376 2°51.351 289.8 1.5 239 10.3
2009-06-22 07:36:48 51°13.375 2°51.349 290.3 1.5 240 10.3
2009-06-22 07:36:53 51°13.374 2°51.346 290.5 1.6 237 10.3
2009-06-22 07:36:58 51°13.373 2°51.343 290.5 1.6 236 10.3
2009-06-22 07:37:04 51°13.372 2°51.34 290.5 1.5 238 10.4
2009-06-22 07:37:08 51°13.371 2°51.338 290.4 1.5 239 10.4
2009-06-22 07:37:13 51°13.37 2°51.335 290.2 1.5 237 10.4
2009-06-22 07:37:18 51°13.369 2°51.333 290 1.4 239 10.4
2009-06-22 07:37:24 51°13.368 2°51.329 289.7 1.5 238 10.4
2009-06-22 07:37:28 51°13.367 2°51.327 289.7 1.5 238 10.4
2009-06-22 07:37:33 51°13.366 2°51.324 289.3 1.6 236 10.4
2009-06-22 07:37:38 51°13.365 2°51.321 289 1.5 239 10.3
2009-06-22 07:37:44 51°13.364 2°51.318 288.8 1.5 238 10.4
2009-06-22 07:37:48 51°13.363 2°51.316 288.3 1.5 238 10.4
2009-06-22 07:37:53 51°13.362 2°51.313 288.2 1.5 238 10.5
2009-06-22 07:37:58 51°13.361 2°51.31 287.9 1.5 238 10.5
2009-06-22 07:38:04 51°13.36 2°51.307 287.6 1.5 237 10.5
2009-06-22 07:38:08 51°13.359 2°51.305 287.6 1.4 240 10.4
2009-06-22 07:38:13 51°13.358 2°51.302 287.5 1.5 237 10.4
2009-06-22 07:38:18 51°13.357 2°51.299 287.3 1.5 239 10.5
2009-06-22 07:38:24 51°13.356 2°51.295 287.4 1.5 238 10.3
2009-06-22 07:38:28 51°13.355 2°51.293 287.4 1.5 237 10.3
2009-06-22 07:38:33 51°13.354 2°51.29 287.3 1.5 239 10.3
2009-06-22 07:38:38 51°13.353 2°51.288 287.3 1.5 240 10.4
2009-06-22 07:38:44 51°13.352 2°51.284 287.3 1.4 241 10.5
2009-06-22 07:38:48 51°13.351 2°51.282 287.5 1.6 237 10.4
2009-06-22 07:38:53 51°13.35 2°51.279 287.5 1.5 242 10.4
2009-06-22 07:38:58 51°13.349 2°51.275 287.5 1.8 246 10.4
2009-06-22 07:39:04 51°13.347 2°51.269 286.1 2.2 254 10.4
2009-06-22 07:39:08 51°13.347 2°51.265 282.9 2.6 252 10.5
2009-06-22 07:39:13 51°13.346 2°51.258 278.2 2.9 255 10.6
2009-06-22 07:39:18 51°13.344 2°51.252 273.5 3.2 253 10.5
2009-06-22 07:39:24 51°13.342 2°51.243 266.1 3.6 250 10.4
2009-06-22 07:39:28 51°13.34 2°51.237 259.5 3.9 246 10.4
2009-06-22 07:39:33 51°13.338 2°51.228 253.3 4.1 243 10.5
2009-06-22 07:39:38 51°13.335 2°51.22 248.9 4.4 241 10.6
2009-06-22 07:39:44 51°13.331 2°51.208 244.8 5 241 10.4
2009-06-22 07:39:48 51°13.328 2°51.2 241.6 5.6 239 10.5
2009-06-22 07:39:53 51°13.323 2°51.188 240.8 6.3 240 10.5
2009-06-22 07:39:58 51°13.318 2°51.174 240.8 6.9 238 10.5
2009-06-22 07:40:04 51°13.312 2°51.158 240.9 7.4 239 10.5
2009-06-22 07:40:08 51°13.307 2°51.146 241.1 7.9 239 10.4
2009-06-22 07:40:13 51°13.301 2°51.13 241.5 8.4 240 10.4
2009-06-22 07:40:18 51°13.295 2°51.113 241.8 8.9 240 10.5
2009-06-22 07:40:24 51°13.287 2°51.09 242.3 9.6 240 10.5
2009-06-22 07:40:28 51°13.281 2°51.074 242.2 10.2 240 10.6
2009-06-22 07:40:33 51°13.274 2°51.053 242.6 10.7 241 10.4
2009-06-22 07:40:38 51°13.266 2°51.032 242.7 11.1 241 10.5
2009-06-22 07:40:44 51°13.257 2°51.005 243.1 11.5 241 10.5
2009-06-22 07:40:48 51°13.251 2°50.987 242.9 11.8 241 10.4
2009-06-22 07:40:53 51°13.242 2°50.964 243.1 12 241 10.4
2009-06-22 07:40:58 51°13.234 2°50.94 243 12.2 242 10.4
2009-06-22 07:41:04 51°13.224 2°50.912 242.5 12.3 240 10.5
2009-06-22 07:41:08 51°13.217 2°50.892 242.5 12.4 241 10.4
2009-06-22 07:41:13 51°13.208 2°50.868 242.5 12.5 240 10.5
2009-06-22 07:41:18 51°13.2 2°50.844 242.7 12.5 241 10.4
2009-06-22 07:41:24 51°13.19 2°50.815 242.7 12.6 241 10.6
2009-06-22 07:41:28 51°13.183 2°50.796 242.8 12.6 240 10.5
2009-06-22 07:41:33 51°13.173 2°50.772 241.2 12.7 239 10.6
2009-06-22 07:41:38 51°13.165 2°50.747 241.7 12.8 241 10.4
2009-06-22 07:41:44 51°13.155 2°50.718 242.2 12.7 240 10.6
2009-06-22 07:41:48 51°13.148 2°50.699 242.3 12.6 241 10.6
2009-06-22 07:41:53 51°13.139 2°50.674 242.7 12.7 241 10.5
2009-06-22 07:41:58 51°13.13 2°50.65 242.9 12.7 240 10.6
2009-06-22 07:42:04 51°13.12 2°50.621 242.5 12.7 240 10.6
2009-06-22 07:42:08 51°13.113 2°50.601 242.2 12.7 241 10.6
2009-06-22 07:42:13 51°13.104 2°50.576 242.7 12.7 241 10.5
2009-06-22 07:42:18 51°13.095 2°50.552 242.9 12.7 239 10.7
2009-06-22 07:42:24 51°13.085 2°50.523 242.4 12.7 241 10.6
2009-06-22 07:42:28 51°13.077 2°50.503 241.6 12.8 238 10.7
2009-06-22 07:42:33 51°13.069 2°50.479 241.6 12.7 241 10.5
2009-06-22 07:42:38 51°13.06 2°50.455 241.1 12.7 238 10.6
2009-06-22 07:42:44 51°13.049 2°50.426 240.8 12.7 240 10.6
2009-06-22 07:42:48 51°13.042 2°50.406 241.1 12.8 239 10.7
2009-06-22 07:42:53 51°13.034 2°50.382 241.7 12.7 242 10.6
2009-06-22 07:42:58 51°13.025 2°50.358 242 12.7 239 10.7
2009-06-22 07:43:04 51°13.014 2°50.328 241.5 12.8 240 10.7
2009-06-22 07:43:08 51°13.007 2°50.309 241.2 12.8 239 10.6
2009-06-22 07:43:13 51°12.997 2°50.285 240.5 12.8 239 10.7
2009-06-22 07:43:18 51°12.988 2°50.261 240.3 12.8 239 10.6
2009-06-22 07:43:24 51°12.977 2°50.232 239.9 12.8 239 10.8
2009-06-22 07:43:28 51°12.97 2°50.213 240.4 12.8 239 10.8
2009-06-22 07:43:33 51°12.961 2°50.189 240.5 12.7 240 10.7
2009-06-22 07:43:39 51°12.95 2°50.16 240.3 12.7 238 10.7
2009-06-22 07:43:44 51°12.941 2°50.135 240.7 12.8 240 10.8
2009-06-22 07:43:48 51°12.934 2°50.116 240.6 12.7 239 10.7
2009-06-22 07:43:53 51°12.925 2°50.092 241 12.7 240 10.7
2009-06-22 07:43:58 51°12.916 2°50.067 241 12.8 239 10.8
2009-06-22 07:44:04 51°12.905 2°50.038 241.6 12.7 240 10.7
2009-06-22 07:44:08 51°12.898 2°50.019 241.1 12.7 240 10.8
2009-06-22 07:44:13 51°12.889 2°49.994 241.1 12.8 240 10.8
2009-06-22 07:44:18 51°12.881 2°49.97 241.3 12.8 241 10.9
2009-06-22 07:44:24 51°12.87 2°49.94 242.2 12.7 240 10.8
2009-06-22 07:44:28 51°12.863 2°49.921 241.2 12.9 240 10.7
2009-06-22 07:44:33 51°12.854 2°49.896 241.8 12.9 240 10.8
2009-06-22 07:44:38 51°12.845 2°49.871 242.2 12.8 241 10.8
2009-06-22 07:44:44 51°12.834 2°49.842 241.8 12.9 240 10.9
2009-06-22 07:44:48 51°12.828 2°49.822 241.8 12.9 241 10.8
2009-06-22 07:44:53 51°12.818 2°49.798 241.7 12.8 239 11
2009-06-22 07:44:58 51°12.81 2°49.773 241.9 12.9 241 10.9
2009-06-22 07:45:04 51°12.799 2°49.743 241.8 12.9 240 10.9
2009-06-22 07:45:08 51°12.793 2°49.723 241.8 12.8 241 10.9
2009-06-22 07:45:13 51°12.784 2°49.699 242.4 12.8 241 10.9
2009-06-22 07:45:18 51°12.775 2°49.674 241.7 12.8 240 10.9
2009-06-22 07:45:24 51°12.764 2°49.644 241.7 12.9 240 10.9
2009-06-22 07:45:28 51°12.757 2°49.625 241.4 12.8 240 10.9
2009-06-22 07:45:33 51°12.748 2°49.6 241.4 12.8 240 10.9
2009-06-22 07:45:38 51°12.74 2°49.576 241.8 12.8 241 11
2009-06-22 07:45:44 51°12.729 2°49.545 242.6 12.8 242 10.9
2009-06-22 07:45:48 51°12.722 2°49.526 243 12.9 240 10.9
2009-06-22 07:45:53 51°12.713 2°49.501 241.9 12.9 240 11
2009-06-22 07:45:59 51°12.703 2°49.472 242.2 12.8 241 11
2009-06-22 07:46:04 51°12.694 2°49.447 242.3 12.8 240 11
2009-06-22 07:46:08 51°12.687 2°49.427 241.9 12.8 241 11
2009-06-22 07:46:13 51°12.678 2°49.403 242.3 12.8 240 11.1
2009-06-22 07:46:18 51°12.67 2°49.377 242.6 12.9 241 11.2
2009-06-22 07:46:24 51°12.66 2°49.348 243 12.8 240 11.1
2009-06-22 07:46:28 51°12.653 2°49.328 242.1 12.8 241 11.1
2009-06-22 07:46:33 51°12.644 2°49.303 242.7 12.8 242 11
2009-06-22 07:46:38 51°12.635 2°49.278 243 13 241 11.1
2009-06-22 07:46:44 51°12.626 2°49.248 243.9 12.9 242 11.1
2009-06-22 07:46:48 51°12.619 2°49.228 243.6 12.9 241 11.1
2009-06-22 07:46:53 51°12.611 2°49.203 243.3 12.9 242 11.2
2009-06-22 07:46:58 51°12.602 2°49.178 243.6 12.9 242 11.1
2009-06-22 07:47:04 51°12.592 2°49.148 243.6 12.9 241 11.2
2009-06-22 07:47:09 51°12.583 2°49.123 243.1 12.9 240 11.1
2009-06-22 07:47:13 51°12.576 2°49.103 242.3 12.9 241 11.2
2009-06-22 07:47:18 51°12.568 2°49.078 242.8 12.8 241 11.2
2009-06-22 07:47:24 51°12.558 2°49.049 243.1 12.9 242 11.1
2009-06-22 07:47:28 51°12.551 2°49.028 243.2 12.9 242 11.1
2009-06-22 07:47:33 51°12.542 2°49.003 243.5 12.9 242 11.1
2009-06-22 07:47:38 51°12.534 2°48.978 243.9 12.9 242 11.2
2009-06-22 07:47:44 51°12.524 2°48.948 243.8 12.9 242 11.2
2009-06-22 07:47:48 51°12.517 2°48.928 244.2 12.8 242 11.2
2009-06-22 07:47:53 51°12.509 2°48.903 243.6 12.8 243 11.2
2009-06-22 07:47:58 51°12.501 2°48.878 244.1 12.8 242 11.1
2009-06-22 07:48:04 51°12.491 2°48.848 243.8 12.9 242 11.3
2009-06-22 07:48:08 51°12.484 2°48.828 243.8 12.9 242 11.2
2009-06-22 07:48:13 51°12.475 2°48.803 243.3 13 242 11.2
2009-06-22 07:48:18 51°12.467 2°48.777 243.4 12.9 242 11.1
2009-06-22 07:48:24 51°12.457 2°48.748 243.3 12.9 241 11.1
2009-06-22 07:48:28 51°12.45 2°48.728 242.9 12.9 241 11.4
2009-06-22 07:48:33 51°12.441 2°48.703 242.3 12.9 240 11.3
2009-06-22 07:48:38 51°12.432 2°48.678 241.5 12.8 241 11.3
2009-06-22 07:48:44 51°12.421 2°48.649 241.8 12.9 239 11.3
2009-06-22 07:48:48 51°12.414 2°48.629 241.7 12.9 242 11.3
2009-06-22 07:48:53 51°12.406 2°48.604 242.8 12.8 240 11.3
2009-06-22 07:48:58 51°12.397 2°48.579 242 12.9 241 11.3
2009-06-22 07:49:04 51°12.387 2°48.549 242.9 12.8 243 11.4
2009-06-22 07:49:09 51°12.378 2°48.524 242.7 12.8 240 11.3
2009-06-22 07:49:13 51°12.372 2°48.504 242.3 12.8 243 11.3
2009-06-22 07:49:18 51°12.363 2°48.48 242.5 12.7 239 11.3
2009-06-22 07:49:24 51°12.352 2°48.45 241.3 12.9 242 11.4
2009-06-22 07:49:29 51°12.344 2°48.426 242.9 12.7 241 11.2
2009-06-22 07:49:33 51°12.337 2°48.406 241.7 12.7 241 11.4
2009-06-22 07:49:38 51°12.329 2°48.381 242.2 12.7 242 11.3
2009-06-22 07:49:44 51°12.318 2°48.352 241.5 12.8 239 11.4
2009-06-22 07:49:48 51°12.311 2°48.332 241.3 12.7 241 11.3
2009-06-22 07:49:53 51°12.302 2°48.308 241.6 12.7 240 11.2
2009-06-22 07:49:58 51°12.294 2°48.284 241.2 12.7 241 11.5
2009-06-22 07:50:04 51°12.283 2°48.254 241.2 12.7 240 11.4
2009-06-22 07:50:08 51°12.276 2°48.235 241.1 12.6 240 11.4
2009-06-22 07:50:13 51°12.267 2°48.211 240.6 12.7 240 11.5
2009-06-22 07:50:19 51°12.256 2°48.181 241 12.7 240 11.5
2009-06-22 07:50:24 51°12.247 2°48.157 241.1 12.7 240 11.6
2009-06-22 07:50:28 51°12.24 2°48.137 241.3 12.7 241 11.3
2009-06-22 07:50:33 51°12.231 2°48.114 240.8 12.7 238 11.4
2009-06-22 07:50:38 51°12.223 2°48.089 241.1 12.7 242 11.3
2009-06-22 07:50:44 51°12.212 2°48.06 241.6 12.7 239 11.5
2009-06-22 07:50:48 51°12.206 2°48.04 240.8 12.7 241 11.2
2009-06-22 07:50:53 51°12.196 2°48.016 240.9 12.7 239 11.4
2009-06-22 07:50:58 51°12.188 2°47.992 241.2 12.7 240 11.4
2009-06-22 07:51:04 51°12.178 2°47.962 240.8 12.7 242 11.3
2009-06-22 07:51:08 51°12.17 2°47.944 241.5 12.7 238 11.4
2009-06-22 07:51:13 51°12.162 2°47.919 240.9 12.8 241 11.4
2009-06-22 07:51:18 51°12.153 2°47.895 241.8 12.6 240 11.3
2009-06-22 07:51:24 51°12.143 2°47.865 241.6 12.6 241 11.5
2009-06-22 07:51:29 51°12.134 2°47.841 241.8 12.7 240 11.4
2009-06-22 07:51:33 51°12.127 2°47.821 241.5 12.7 241 11.3
2009-06-22 07:51:38 51°12.119 2°47.797 241.3 12.6 240 11.3
2009-06-22 07:51:44 51°12.109 2°47.768 241.8 12.6 241 11.4
2009-06-22 07:51:48 51°12.101 2°47.749 241.5 12.6 240 11.4
2009-06-22 07:51:53 51°12.093 2°47.724 241.4 12.7 241 11.3
2009-06-22 07:51:58 51°12.084 2°47.7 241.7 12.7 240 11.3
2009-06-22 07:52:04 51°12.074 2°47.671 241.6 12.7 241 11.5
2009-06-22 07:52:08 51°12.067 2°47.651 241.6 12.7 240 11.4
2009-06-22 07:52:13 51°12.058 2°47.626 241.4 12.8 241 11.3
2009-06-22 07:52:18 51°12.05 2°47.602 242 12.7 241 11.2
2009-06-22 07:52:24 51°12.04 2°47.573 241.7 12.8 241 11.3
2009-06-22 07:52:28 51°12.033 2°47.553 241.6 12.7 241 11.3
2009-06-22 07:52:33 51°12.024 2°47.529 242.1 12.8 240 11.3
2009-06-22 07:52:39 51°12.015 2°47.499 242.5 12.8 242 11.3
2009-06-22 07:52:44 51°12.006 2°47.474 243 12.7 242 11.3
2009-06-22 07:52:48 51°11.999 2°47.454 243.2 12.7 242 11.3
2009-06-22 07:52:53 51°11.991 2°47.429 242.7 12.8 241 11.3
2009-06-22 07:52:58 51°11.982 2°47.405 242.3 12.8 241 11.3
2009-06-22 07:53:04 51°11.973 2°47.375 242.2 12.8 242 11.3
2009-06-22 07:53:08 51°11.966 2°47.355 242.5 12.7 241 11.3
2009-06-22 07:53:13 51°11.957 2°47.33 242 12.8 242 11.4
2009-06-22 07:53:18 51°11.949 2°47.306 241.9 12.8 241 11.3
2009-06-22 07:53:24 51°11.939 2°47.276 242.4 12.8 242 11.3
2009-06-22 07:53:28 51°11.932 2°47.256 243.3 12.8 243 11.3
2009-06-22 07:53:33 51°11.924 2°47.231 243.5 12.8 242 11.2
2009-06-22 07:53:38 51°11.916 2°47.205 243.9 12.7 243 11.3
2009-06-22 07:53:44 51°11.906 2°47.175 244.7 12.8 242 11.2
2009-06-22 07:53:49 51°11.898 2°47.15 243.8 12.8 244 11.3
2009-06-22 07:53:53 51°11.892 2°47.13 244.6 12.8 242 11.4
2009-06-22 07:53:58 51°11.884 2°47.105 243.8 12.8 243 11.2
2009-06-22 07:54:04 51°11.874 2°47.075 244.1 12.7 243 11.2
2009-06-22 07:54:09 51°11.866 2°47.05 244.1 12.8 243 11.2
2009-06-22 07:54:13 51°11.86 2°47.03 244.1 12.7 244 11.2
2009-06-22 07:54:18 51°11.852 2°47.005 244.8 12.7 243 11.2
2009-06-22 07:54:24 51°11.843 2°46.974 246 12.7 245 11.2
2009-06-22 07:54:28 51°11.837 2°46.954 246.2 12.7 244 11.2
2009-06-22 07:54:33 51°11.829 2°46.929 245.8 12.7 243 11.2
2009-06-22 07:54:38 51°11.821 2°46.903 245.4 12.7 244 11.3
2009-06-22 07:54:44 51°11.812 2°46.874 245.8 12.7 243 11.3
2009-06-22 07:54:48 51°11.806 2°46.853 245.4 12.7 244 11.3
2009-06-22 07:54:53 51°11.799 2°46.828 245.9 12.6 245 11.2
2009-06-22 07:54:59 51°11.789 2°46.798 245.3 12.6 243 11.4
2009-06-22 07:55:04 51°11.782 2°46.773 245.9 12.6 245 11.3
2009-06-22 07:55:08 51°11.777 2°46.752 247 12.7 247 11.4
2009-06-22 07:55:13 51°11.77 2°46.726 249 12.6 248 11.4
2009-06-22 07:55:19 51°11.762 2°46.695 249.1 12.6 248 11.5
2009-06-22 07:55:24 51°11.756 2°46.669 250.7 12.6 249 11.4
2009-06-22 07:55:28 51°11.751 2°46.648 251.2 12.6 250 11.4
2009-06-22 07:55:33 51°11.745 2°46.622 252 12.6 251 11.5
2009-06-22 07:55:38 51°11.739 2°46.596 252 12.6 250 11.5
2009-06-22 07:55:44 51°11.733 2°46.564 252.1 12.6 251 11.5
2009-06-22 07:55:49 51°11.727 2°46.538 252.6 12.6 250 11.6
2009-06-22 07:55:53 51°11.722 2°46.517 252.5 12.7 251 11.5
2009-06-22 07:55:58 51°11.716 2°46.49 252.7 12.7 251 11.5
2009-06-22 07:56:04 51°11.709 2°46.458 253 12.7 251 11.6
2009-06-22 07:56:09 51°11.704 2°46.432 252.6 12.7 250 11.8
2009-06-22 07:56:13 51°11.699 2°46.411 253.2 12.7 251 11.7
2009-06-22 07:56:18 51°11.694 2°46.384 253.4 12.7 253 11.6
2009-06-22 07:56:24 51°11.687 2°46.352 254.1 12.7 251 11.8
2009-06-22 07:56:28 51°11.683 2°46.33 254 12.7 252 11.7
2009-06-22 07:56:33 51°11.677 2°46.304 253.4 12.7 251 11.8
2009-06-22 07:56:38 51°11.672 2°46.277 253.4 12.7 252 11.5
2009-06-22 07:56:44 51°11.664 2°46.245 252.6 12.8 251 11.6
2009-06-22 07:56:48 51°11.66 2°46.224 252.8 12.7 251 11.7
2009-06-22 07:56:53 51°11.653 2°46.197 252.3 12.8 249 11.8
2009-06-22 07:56:59 51°11.647 2°46.165 252.5 12.8 252 11.7
2009-06-22 07:57:04 51°11.641 2°46.138 252.7 12.8 250 11.8
2009-06-22 07:57:08 51°11.637 2°46.117 253.4 12.9 253 11.7
2009-06-22 07:57:13 51°11.631 2°46.09 254.1 12.8 251 11.7
2009-06-22 07:57:19 51°11.625 2°46.058 253.6 12.8 252 11.6
2009-06-22 07:57:24 51°11.619 2°46.031 253.6 12.9 251 11.9
2009-06-22 07:57:28 51°11.615 2°46.009 254.2 12.8 253 11.7
2009-06-22 07:57:33 51°11.609 2°45.982 254.1 12.9 251 11.8
2009-06-22 07:57:37 51°11.605 2°45.96 254 12.8 252 11.7
2009-06-22 07:57:44 51°11.597 2°45.923 253 12.9 250 11.9
2009-06-22 07:57:48 51°11.592 2°45.901 252.8 12.9 251 11.8
2009-06-22 07:57:53 51°11.586 2°45.874 252.4 12.9 250 11.9
2009-06-22 07:57:57 51°11.582 2°45.853 252.7 12.8 251 11.9
2009-06-22 07:58:03 51°11.575 2°45.82 252.8 12.9 252 11.8
2009-06-22 07:58:09 51°11.568 2°45.788 253.3 12.8 252 11.8
2009-06-22 07:58:13 51°11.563 2°45.767 253.2 12.9 251 11.9
2009-06-22 07:58:17 51°11.559 2°45.745 252.9 12.9 252 11.8
2009-06-22 07:58:23 51°11.552 2°45.712 253.5 12.9 252 11.8
2009-06-22 07:58:28 51°11.546 2°45.686 253.1 12.9 250 11.8
2009-06-22 07:58:33 51°11.541 2°45.659 253.3 12.8 253 11.9
2009-06-22 07:58:38 51°11.535 2°45.632 253.3 12.8 251 11.9
2009-06-22 07:58:44 51°11.528 2°45.6 253.3 12.9 251 11.8
2009-06-22 07:58:48 51°11.524 2°45.578 252.1 12.8 252 11.8
2009-06-22 07:58:53 51°11.517 2°45.552 252.4 12.9 250 11.8
2009-06-22 07:58:58 51°11.512 2°45.524 252.5 12.9 252 11.9
2009-06-22 07:59:04 51°11.505 2°45.492 253.2 12.8 252 11.8
2009-06-22 07:59:09 51°11.499 2°45.465 253.4 12.9 251 11.8
2009-06-22 07:59:13 51°11.495 2°45.444 253.3 12.9 252 11.9
2009-06-22 07:59:18 51°11.489 2°45.417 253.8 12.8 251 11.8
2009-06-22 07:59:24 51°11.483 2°45.384 253.7 12.9 252 11.9
2009-06-22 07:59:28 51°11.478 2°45.363 253.4 12.9 251 11.8
2009-06-22 07:59:33 51°11.472 2°45.336 253.3 12.9 252 11.9
2009-06-22 07:59:39 51°11.465 2°45.304 253.4 12.8 251 11.9
2009-06-22 07:59:44 51°11.46 2°45.277 252.5 12.9 251 11.8
2009-06-22 07:59:48 51°11.455 2°45.255 251.9 12.8 250 11.9
2009-06-22 07:59:53 51°11.449 2°45.228 252.1 12.9 251 11.8
2009-06-22 07:59:58 51°11.443 2°45.201 251.9 12.9 250 11.9
2009-06-22 08:00:04 51°11.436 2°45.169 252.9 12.8 252 11.8
2009-06-22 08:00:09 51°11.43 2°45.142 252.7 12.9 250 12
2009-06-22 08:00:13 51°11.425 2°45.12 252.3 12.9 251 11.8
2009-06-22 08:00:18 51°11.419 2°45.094 251.8 12.9 249 11.9
2009-06-22 08:00:23 51°11.413 2°45.067 251.5 12.9 251 11.9
2009-06-22 08:00:29 51°11.406 2°45.035 251.4 12.9 250 11.9
2009-06-22 08:00:33 51°11.401 2°45.014 251.6 12.9 250 12
2009-06-22 08:00:38 51°11.395 2°44.987 251.2 12.9 251 12
2009-06-22 08:00:44 51°11.387 2°44.955 251.9 12.9 250 12
2009-06-22 08:00:48 51°11.383 2°44.933 251.8 13 252 11.9
2009-06-22 08:00:53 51°11.377 2°44.906 252.5 13 250 11.9
2009-06-22 08:00:58 51°11.371 2°44.879 252.7 13 252 11.9
2009-06-22 08:01:04 51°11.365 2°44.846 253.3 12.9 252 11.8
2009-06-22 08:01:09 51°11.36 2°44.819 253.4 12.9 252 11.8
2009-06-22 08:01:14 51°11.354 2°44.792 253.3 13 252 11.9
2009-06-22 08:01:18 51°11.349 2°44.769 253.3 13 253 11.9
2009-06-22 08:01:24 51°11.343 2°44.737 253.5 13 252 11.9
2009-06-22 08:01:28 51°11.338 2°44.715 253.5 13 251 12
2009-06-22 08:01:33 51°11.333 2°44.688 253.2 13 252 12
2009-06-22 08:01:38 51°11.327 2°44.661 253.7 13 252 11.9
2009-06-22 08:01:44 51°11.32 2°44.628 253.3 13 253 11.9
2009-06-22 08:01:48 51°11.315 2°44.606 253.2 12.9 251 11.9
2009-06-22 08:01:53 51°11.31 2°44.579 252.9 13 251 12
2009-06-22 08:01:58 51°11.304 2°44.552 253.4 12.9 252 12
2009-06-22 08:02:04 51°11.297 2°44.519 253 13 251 12
2009-06-22 08:02:08 51°11.293 2°44.497 252.7 13 252 11.9
2009-06-22 08:02:13 51°11.287 2°44.47 252.8 13 251 11.8
2009-06-22 08:02:18 51°11.281 2°44.443 252.7 13 251 11.9
2009-06-22 08:02:24 51°11.274 2°44.41 252.9 12.9 251 11.9
2009-06-22 08:02:29 51°11.268 2°44.383 252.5 13 251 11.9
2009-06-22 08:02:33 51°11.263 2°44.361 252.3 13 251 12.1
2009-06-22 08:02:38 51°11.258 2°44.334 252.5 13 251 12
2009-06-22 08:02:44 51°11.251 2°44.301 252.5 13 252 11.9
2009-06-22 08:02:48 51°11.246 2°44.28 252.8 12.9 251 12
2009-06-22 08:02:53 51°11.24 2°44.253 252.7 13 251 11.9
2009-06-22 08:02:58 51°11.234 2°44.225 252.5 13 251 11.9
2009-06-22 08:03:04 51°11.228 2°44.193 252.7 13 252 11.9
2009-06-22 08:03:09 51°11.222 2°44.166 252.5 13 251 11.8
2009-06-22 08:03:13 51°11.217 2°44.144 252.7 13 252 11.7
2009-06-22 08:03:18 51°11.212 2°44.117 253.2 13 252 11.7
2009-06-22 08:03:24 51°11.206 2°44.084 253.7 13 254 11.9
2009-06-22 08:03:28 51°11.202 2°44.061 255.3 13 254 11.6
2009-06-22 08:03:33 51°11.197 2°44.034 255.1 13 254 11.8
2009-06-22 08:03:38 51°11.192 2°44.007 255.6 13 254 11.9
2009-06-22 08:03:44 51°11.186 2°43.974 256.2 12.9 255 11.9
2009-06-22 08:03:48 51°11.182 2°43.952 255.6 13 253 11.9
2009-06-22 08:03:53 51°11.177 2°43.924 254.8 13 255 11.9
2009-06-22 08:03:58 51°11.172 2°43.897 255.4 12.9 254 11.8
2009-06-22 08:04:04 51°11.167 2°43.864 256.6 12.9 256 12
2009-06-22 08:04:08 51°11.164 2°43.842 257.8 12.9 258 11.9
2009-06-22 08:04:13 51°11.16 2°43.814 259.9 12.9 258 11.9
2009-06-22 08:04:18 51°11.157 2°43.786 261.5 12.9 261 12
2009-06-22 08:04:24 51°11.154 2°43.752 263.6 12.9 261 12.1
2009-06-22 08:04:28 51°11.153 2°43.73 264.7 12.9 263 12
2009-06-22 08:04:33 51°11.151 2°43.701 265.7 12.9 264 11.8
2009-06-22 08:04:38 51°11.149 2°43.673 266.5 12.9 264 11.8
2009-06-22 08:04:44 51°11.147 2°43.639 267.7 12.9 265 11.8
2009-06-22 08:04:48 51°11.146 2°43.617 267.6 12.9 265 11.9
2009-06-22 08:04:53 51°11.145 2°43.588 268.8 12.9 267 11.9
2009-06-22 08:04:58 51°11.143 2°43.56 269.2 12.9 265 12
2009-06-22 08:05:04 51°11.142 2°43.526 269.5 12.8 267 11.9
2009-06-22 08:05:08 51°11.141 2°43.503 269.7 12.9 266 12.1
2009-06-22 08:05:13 51°11.14 2°43.475 269.6 12.9 267 12
2009-06-22 08:05:18 51°11.138 2°43.446 269.4 12.9 265 12.1
2009-06-22 08:05:24 51°11.137 2°43.412 268.7 12.9 266 12.2
2009-06-22 08:05:28 51°11.136 2°43.389 268.6 13 265 12.3
2009-06-22 08:05:33 51°11.135 2°43.361 269.1 13 267 12.2
2009-06-22 08:05:38 51°11.133 2°43.332 269.6 12.9 266 12.3
2009-06-22 08:05:44 51°11.132 2°43.298 269.4 12.8 266 12.2
2009-06-22 08:05:48 51°11.131 2°43.277 269.4 12.5 266 12.1
2009-06-22 08:05:53 51°11.129 2°43.249 268.3 12.4 265 12.2
2009-06-22 08:05:58 51°11.128 2°43.222 267.8 12.2 265 12.3
2009-06-22 08:06:04 51°11.126 2°43.19 267.9 12.1 264 12.3
2009-06-22 08:06:08 51°11.125 2°43.169 268.1 12 266 12.3
2009-06-22 08:06:13 51°11.123 2°43.143 268.9 11.9 265 12.1
2009-06-22 08:06:18 51°11.122 2°43.118 269.2 11.8 266 12.1
2009-06-22 08:06:24 51°11.121 2°43.086 269 11.7 266 12.2
2009-06-22 08:06:28 51°11.12 2°43.066 269.3 11.7 266 12.3
2009-06-22 08:06:33 51°11.119 2°43.04 269.4 11.7 266 12.3
2009-06-22 08:06:39 51°11.117 2°43.009 269.4 11.7 266 12.3
2009-06-22 08:06:44 51°11.116 2°42.984 269.4 11.6 266 12.2
2009-06-22 08:06:48 51°11.115 2°42.963 269.2 11.6 266 12.4
2009-06-22 08:06:53 51°11.114 2°42.937 269.4 11.6 266 12.3
2009-06-22 08:06:58 51°11.113 2°42.912 269.3 11.7 265 12.3
2009-06-22 08:07:04 51°11.111 2°42.881 269 11.6 265 12.3
2009-06-22 08:07:08 51°11.11 2°42.861 268.8 11.6 266 12.3
2009-06-22 08:07:13 51°11.109 2°42.835 268.6 11.7 265 12.4